Time;durP1;ratioP1;P1;durP2;ratioP2;P2;SDS_P1;SDS_P2;PMS_P1;PMS_P2;Temp;Humidity;BMP_temperature;BMP_pressure;BME280_temperature;BME280_humidity;BME280_pressure;Samples;Min_cycle;Max_cycle;Signal;HPM_P1;HPM_P2
2022/11/13 00:03:03;;;;;;;0.00;0.00;;;;;;;3.35;100.00;103006.72;10547401;28;20023;-80
2022/11/13 00:08:04;;;;;;;0.00;0.00;;;;;;;3.48;100.00;102992.13;10528594;28;20027;-80
2022/11/13 00:13:04;;;;;;;0.00;0.00;;;;;;;3.51;100.00;103007.81;10547012;28;20111;-79
2022/11/13 00:18:04;;;;;;;0.00;0.00;;;;;;;3.36;100.00;102997.91;10527491;28;20542;-80
2022/11/13 00:23:04;;;;;;;0.00;0.00;;;;;;;3.30;100.00;102987.59;10503610;28;20099;-80
2022/11/13 00:28:05;;;;;;;0.00;0.00;;;;;;;3.24;100.00;102987.84;10504571;28;20298;-80
2022/11/13 00:33:05;;;;;;;0.00;0.00;;;;;;;3.21;100.00;102988.81;10509798;28;20059;-80
2022/11/13 00:38:05;;;;;;;0.00;0.00;;;;;;;3.22;100.00;102982.63;10544091;28;20036;-81
2022/11/13 00:43:06;;;;;;;0.00;0.00;;;;;;;3.24;100.00;102972.03;10517826;28;20353;-80
2022/11/13 00:48:06;;;;;;;0.00;0.00;;;;;;;3.31;100.00;102965.59;10532007;28;20043;-79
2022/11/13 00:53:06;;;;;;;0.00;0.00;;;;;;;3.31;100.00;102963.81;10514669;28;20033;-80
2022/11/13 00:58:07;;;;;;;0.00;0.00;;;;;;;3.27;100.00;102964.88;10484827;28;20101;-79
2022/11/13 01:03:08;;;;;;;0.00;0.00;;;;;;;3.27;100.00;102977.19;10505735;28;20019;-80
2022/11/13 01:08:09;;;;;;;0.00;0.00;;;;;;;3.14;100.00;102960.97;10504983;28;20028;-81
2022/11/13 01:13:10;;;;;;;0.00;0.00;;;;;;;3.14;100.00;102961.84;10502639;28;20048;-80
2022/11/13 01:18:11;;;;;;;0.00;0.00;;;;;;;3.09;100.00;102960.31;10517120;28;20036;-80
2022/11/13 01:23:11;;;;;;;0.00;0.00;;;;;;;3.07;100.00;102949.81;10498095;22;20064;-75
2022/11/13 01:28:12;;;;;;;0.00;0.00;;;;;;;3.13;100.00;102946.94;10492772;28;20023;-76
2022/11/13 01:33:12;;;;;;;0.00;0.00;;;;;;;3.10;100.00;102931.28;10492588;28;20340;-76
2022/11/13 01:38:12;;;;;;;0.00;0.00;;;;;;;3.18;100.00;102921.31;10497215;28;20123;-75
2022/11/13 01:43:39;;;;;;;0.00;0.00;;;;;;;3.21;100.00;102932.66;10515133;28;20034;-75
2022/11/13 01:49:05;;;;;;;0.00;0.00;;;;;;;3.26;100.00;102914.88;10524522;28;20134;-76
2022/11/13 01:54:10;;;;;;;0.00;0.00;;;;;;;3.17;100.00;102910.81;10474737;28;20177;-75
2022/11/13 01:59:19;;;;;;;0.00;0.00;;;;;;;3.00;100.00;102905.38;10518713;28;20489;-78
2022/11/13 02:04:19;;;;;;;0.00;0.00;;;;;;;2.95;100.00;102909.03;10533649;28;20031;-76
2022/11/13 02:09:23;;;;;;;0.00;0.00;;;;;;;2.91;100.00;102910.06;10517862;28;20419;-76
2022/11/13 02:14:26;;;;;;;0.00;0.00;;;;;;;2.93;100.00;102907.38;10518045;28;20030;-76
2022/11/13 02:19:31;;;;;;;0.00;0.00;;;;;;;2.87;100.00;102910.22;10517731;28;20027;-77
2022/11/13 02:24:37;;;;;;;0.00;0.00;;;;;;;2.80;100.00;102916.66;10491710;28;20078;-77
2022/11/13 02:29:37;;;;;;;0.00;0.00;;;;;;;2.75;100.00;102915.97;10490994;28;20054;-77
2022/11/13 02:34:37;;;;;;;0.00;0.00;;;;;;;2.77;100.00;102924.66;10491292;28;20085;-77
2022/11/13 02:39:38;;;;;;;0.00;0.00;;;;;;;2.85;100.00;102914.69;10491004;28;20099;-77
2022/11/13 02:44:38;;;;;;;0.00;0.00;;;;;;;2.89;100.00;102908.41;10493134;28;20089;-77
2022/11/13 02:49:38;;;;;;;0.00;0.00;;;;;;;2.76;100.00;102901.88;10488467;28;20034;-77
2022/11/13 02:54:39;;;;;;;0.00;0.00;;;;;;;2.57;100.00;102897.31;10521151;28;20073;-77
2022/11/13 02:59:40;;;;;;;0.00;0.00;;;;;;;2.58;100.00;102904.28;10531785;28;20031;-77
2022/11/13 03:04:40;;;;;;;0.08;0.08;;;;;;;2.66;100.00;102886.44;10527305;28;20316;-78
2022/11/13 03:09:41;;;;;;;0.00;0.00;;;;;;;2.61;100.00;102885.75;10490016;28;20017;-78
2022/11/13 03:14:41;;;;;;;0.00;0.00;;;;;;;2.50;100.00;102882.66;10490318;28;20378;-77
2022/11/13 03:19:41;;;;;;;0.00;0.00;;;;;;;2.47;100.00;102881.03;10492000;28;20054;-78
2022/11/13 03:24:42;;;;;;;0.00;0.00;;;;;;;2.56;100.00;102877.19;10522104;28;20123;-77
2022/11/13 03:29:42;;;;;;;0.00;0.00;;;;;;;2.59;100.00;102873.56;10498014;28;20017;-77
2022/11/13 03:34:42;;;;;;;0.00;0.00;;;;;;;2.58;100.00;102867.44;10497839;28;20082;-78
2022/11/13 03:39:43;;;;;;;0.00;0.00;;;;;;;2.57;100.00;102868.38;10497388;28;20552;-78
2022/11/13 03:44:43;;;;;;;0.00;0.00;;;;;;;2.58;100.00;102861.34;10497488;28;20032;-78
2022/11/13 03:49:43;;;;;;;0.00;0.00;;;;;;;2.60;100.00;102870.03;10494521;28;20336;-78
2022/11/13 03:54:44;;;;;;;0.00;0.00;;;;;;;2.55;100.00;102866.72;10502885;28;20112;-78
2022/11/13 03:59:44;;;;;;;0.10;0.10;;;;;;;2.38;100.00;102859.44;10496271;28;20008;-77
2022/11/13 04:04:44;;;;;;;0.00;0.00;;;;;;;2.25;100.00;102861.66;10496668;28;20104;-78
2022/11/13 04:09:44;;;;;;;0.10;0.10;;;;;;;2.27;100.00;102859.84;10496076;28;20021;-77
2022/11/13 04:14:45;;;;;;;0.00;0.00;;;;;;;2.28;100.00;102852.81;10535721;28;20016;-78
2022/11/13 04:19:45;;;;;;;0.00;0.00;;;;;;;2.26;100.00;102840.56;10522370;28;20073;-78
2022/11/13 04:24:45;;;;;;;0.00;0.00;;;;;;;2.20;100.00;102843.41;10498166;28;20031;-78
2022/11/13 04:29:45;;;;;;;0.00;0.00;;;;;;;2.18;100.00;102825.97;10535157;28;20513;-78
2022/11/13 04:34:46;;;;;;;0.00;0.00;;;;;;;2.32;100.00;102822.84;10529352;28;20398;-78
2022/11/13 04:39:46;;;;;;;0.00;0.00;;;;;;;2.43;100.00;102831.19;10531893;28;20024;-78
2022/11/13 04:44:46;;;;;;;0.00;0.00;;;;;;;2.46;100.00;102833.72;10495089;28;20258;-78
2022/11/13 04:49:46;;;;;;;0.00;0.00;;;;;;;2.33;100.00;102824.56;10494285;28;20028;-78
2022/11/13 04:54:47;;;;;;;0.00;0.00;;;;;;;2.25;100.00;102816.97;10494583;28;20078;-77
2022/11/13 04:59:47;;;;;;;0.00;0.00;;;;;;;2.27;100.00;102815.16;10501035;28;20095;-77
2022/11/13 05:04:47;;;;;;;0.00;0.00;;;;;;;2.38;100.00;102796.31;10535450;28;20073;-77
2022/11/13 05:09:48;;;;;;;0.00;0.00;;;;;;;2.49;100.00;102794.13;10526131;28;20219;-77
2022/11/13 05:14:48;;;;;;;0.07;0.07;;;;;;;2.54;100.00;102792.19;10535967;28;20346;-78
2022/11/13 05:19:48;;;;;;;0.00;0.00;;;;;;;2.53;100.00;102782.59;10496736;28;20257;-77
2022/11/13 05:24:48;;;;;;;0.00;0.00;;;;;;;2.57;100.00;102783.34;10493366;28;20020;-77
2022/11/13 05:29:49;;;;;;;0.00;0.00;;;;;;;2.55;100.00;102779.91;10492642;28;20104;-77
2022/11/13 05:34:49;;;;;;;0.00;0.00;;;;;;;2.51;100.00;102776.53;10505886;28;20020;-78
2022/11/13 05:39:49;;;;;;;0.00;0.00;;;;;;;2.53;100.00;102771.19;10493708;28;20026;-78
2022/11/13 05:44:49;;;;;;;0.00;0.00;;;;;;;2.52;100.00;102770.34;10492655;28;20020;-77
2022/11/13 05:49:50;;;;;;;0.00;0.00;;;;;;;2.45;100.00;102771.50;10492128;28;20028;-77
2022/11/13 05:54:50;;;;;;;0.00;0.00;;;;;;;2.33;100.00;102769.31;10492105;28;20021;-77
2022/11/13 05:59:50;;;;;;;0.00;0.00;;;;;;;2.13;100.00;102764.84;10482629;28;20065;-77
2022/11/13 06:04:51;;;;;;;0.00;0.00;;;;;;;2.06;100.00;102773.84;10492584;28;20016;-78
2022/11/13 06:09:51;;;;;;;0.10;0.10;;;;;;;2.00;100.00;102778.41;10506705;28;20050;-77
2022/11/13 06:14:51;;;;;;;0.00;0.00;;;;;;;1.97;100.00;102770.63;10526319;28;20745;-78
2022/11/13 06:19:52;;;;;;;0.00;0.00;;;;;;;2.06;100.00;102763.34;10490695;28;20025;-78
2022/11/13 06:24:52;;;;;;;0.00;0.00;;;;;;;2.04;100.00;102750.28;10490814;28;20494;-77
2022/11/13 06:29:52;;;;;;;0.00;0.00;;;;;;;1.96;100.00;102747.06;10490435;28;20028;-78
2022/11/13 06:34:52;;;;;;;0.00;0.00;;;;;;;1.89;100.00;102746.44;10490723;28;20016;-78
2022/11/13 06:39:53;;;;;;;0.00;0.00;;;;;;;1.89;100.00;102751.69;10481917;28;20037;-78
2022/11/13 06:44:53;;;;;;;0.00;0.00;;;;;;;1.81;100.00;102759.84;10493581;28;20059;-78
2022/11/13 06:49:53;;;;;;;0.00;0.00;;;;;;;1.74;100.00;102758.31;10487968;28;20028;-78
2022/11/13 06:54:53;;;;;;;0.00;0.00;;;;;;;1.70;100.00;102766.41;10489447;28;20031;-78
2022/11/13 06:59:54;;;;;;;0.00;0.00;;;;;;;1.69;100.00;102755.03;10494282;28;20517;-78
2022/11/13 07:04:54;;;;;;;0.00;0.00;;;;;;;1.83;100.00;102756.28;10503970;28;20020;-77
2022/11/13 07:09:54;;;;;;;0.00;0.00;;;;;;;2.10;100.00;102752.66;10504669;28;20047;-77
2022/11/13 07:14:54;;;;;;;0.00;0.00;;;;;;;2.47;100.00;102759.13;10530932;28;20052;-78
2022/11/13 07:19:55;;;;;;;0.00;0.00;;;;;;;2.57;100.00;102757.03;10526688;28;20024;-78
2022/11/13 07:24:55;;;;;;;0.08;0.08;;;;;;;2.55;100.00;102754.44;10567576;22;20305;-82
2022/11/13 07:29:55;;;;;;;0.00;0.00;;;;;;;2.58;100.00;102749.06;10579465;27;20531;-79
2022/11/13 07:34:56;;;;;;;0.00;0.00;;;;;;;2.77;100.00;102750.97;10579491;27;20490;-80
2022/11/13 07:39:56;;;;;;;0.00;0.00;;;;;;;2.94;100.00;102751.16;10578254;27;20104;-83
2022/11/13 07:44:56;;;;;;;0.00;0.00;;;;;;;3.23;100.00;102747.31;10615464;27;20030;-82
2022/11/13 07:49:57;;;;;;;0.00;0.00;;;;;;;4.20;100.00;102743.91;10628814;27;20103;-83
2022/11/13 07:54:57;;;;;;;0.00;0.00;;;;;;;4.84;100.00;102742.63;10617793;27;20669;-83
2022/11/13 07:59:57;;;;;;;0.00;0.00;;;;;;;5.27;100.00;102752.84;10580677;27;20084;-83
2022/11/13 08:04:57;;;;;;;0.00;0.00;;;;;;;5.67;100.00;102756.91;10620846;27;20663;-81
2022/11/13 08:09:58;;;;;;;0.00;0.00;;;;;;;6.53;100.00;102757.63;10614108;27;20405;-82
2022/11/13 08:14:59;;;;;;;0.05;0.05;;;;;;;7.22;100.00;102751.88;10575080;28;20286;-78
2022/11/13 08:19:59;;;;;;;0.00;0.00;;;;;;;7.77;100.00;102760.97;10589302;28;20008;-78
2022/11/13 08:24:59;;;;;;;0.00;0.00;;;;;;;8.21;100.00;102767.13;10591192;28;20466;-78
2022/11/13 08:29:59;;;;;;;0.10;0.10;;;;;;;8.68;100.00;102766.78;10603154;27;20143;-78
2022/11/13 08:35:00;;;;;;;0.10;0.10;;;;;;;8.85;100.00;102768.34;10590206;28;20027;-76
2022/11/13 08:40:00;;;;;;;0.00;0.00;;;;;;;9.21;100.00;102762.38;10570675;27;20015;-77
2022/11/13 08:45:00;;;;;;;0.00;0.00;;;;;;;9.42;100.00;102760.06;10569771;28;20046;-77
2022/11/13 08:50:01;;;;;;;0.10;0.10;;;;;;;9.60;100.00;102762.44;10579864;27;20104;-77
2022/11/13 08:55:01;;;;;;;0.10;0.10;;;;;;;9.76;100.00;102757.78;10584700;27;20038;-77
2022/11/13 09:00:04;;;;;;;0.10;0.10;;;;;;;9.75;100.00;102759.59;10586527;28;20066;-78
2022/11/13 09:05:05;;;;;;;0.00;0.00;;;;;;;9.42;100.00;102761.91;10592759;27;20071;-79
2022/11/13 09:10:06;;;;;;;0.10;0.10;;;;;;;9.47;100.00;102760.63;10629314;27;20026;-79
2022/11/13 09:15:07;;;;;;;0.10;0.10;;;;;;;9.20;100.00;102754.53;10612005;27;20475;-78
2022/11/13 09:20:08;;;;;;;0.00;0.00;;;;;;;8.58;100.00;102761.22;10593702;27;20020;-78
2022/11/13 09:25:08;;;;;;;0.10;0.10;;;;;;;8.48;100.00;102764.56;10586761;28;20031;-79
2022/11/13 09:30:09;;;;;;;0.10;0.10;;;;;;;8.42;100.00;102765.81;10568651;27;20030;-79
2022/11/13 09:35:09;;;;;;;0.10;0.10;;;;;;;8.00;100.00;102764.00;10572902;27;20540;-79
2022/11/13 09:40:22;;;;;;;0.10;0.10;;;;;;;7.67;100.00;102759.81;10615168;27;20021;-79
2022/11/13 09:45:23;;;;;;;0.00;0.00;;;;;;;7.63;100.00;102759.16;10630676;27;20075;-79
2022/11/13 09:50:27;;;;;;;0.00;0.00;;;;;;;7.71;100.00;102761.34;10588504;27;20423;-79
2022/11/13 09:55:37;;;;;;;0.00;0.00;;;;;;;7.62;100.00;102773.38;10587928;28;20392;-80
2022/11/13 10:00:38;;;;;;;0.00;0.00;;;;;;;7.49;100.00;102770.59;10587207;28;20015;-78
2022/11/13 10:06:05;;;;;;;0.00;0.00;;;;;;;7.17;100.00;102767.19;10598087;27;20023;-79
2022/11/13 10:11:32;;;;;;;0.10;0.10;;;;;;;7.02;100.00;102771.59;10618353;27;20024;-79
2022/11/13 10:16:39;;;;;;;0.10;0.10;;;;;;;6.99;100.00;102776.22;10588726;28;20044;-80
2022/11/13 10:21:50;;;;;;;0.00;0.00;;;;;;;7.11;100.00;102764.91;10567366;28;20035;-80
2022/11/13 10:26:58;;;;;;;0.00;0.00;;;;;;;7.15;100.00;102763.75;10569250;28;20424;-79
2022/11/13 10:31:59;;;;;;;0.00;0.00;;;;;;;7.18;100.00;102763.59;10567014;28;20504;-79
2022/11/13 10:37:23;;;;;;;0.00;0.00;;;;;;;7.20;100.00;102761.69;10568065;28;20478;-79
2022/11/13 10:42:34;;;;;;;0.00;0.00;;;;;;;7.24;100.00;102760.59;10586652;28;20064;-79
2022/11/13 10:47:44;;;;;;;0.00;0.00;;;;;;;7.30;100.00;102747.91;10567109;28;20019;-79
2022/11/13 10:52:47;;;;;;;0.00;0.00;;;;;;;7.48;100.00;102747.69;10583177;28;20053;-78
2022/11/13 10:57:58;;;;;;;0.05;0.05;;;;;;;7.59;100.00;102756.78;10603341;27;20030;-79
2022/11/13 11:02:59;;;;;;;0.00;0.00;;;;;;;7.64;100.00;102750.25;10609997;28;20414;-80
2022/11/13 11:07:59;;;;;;;0.00;0.00;;;;;;;7.75;100.00;102743.44;10609777;28;20096;-79
2022/11/13 11:13:08;;;;;;;0.00;0.00;;;;;;;7.63;100.00;102727.34;10609357;27;20635;-79
2022/11/13 11:18:41;;;;;;;0.00;0.00;;;;;;;7.61;100.00;102726.56;10626120;28;20292;-79
2022/11/13 11:23:46;;;;;;;0.10;0.10;;;;;;;7.73;100.00;102706.38;10611383;27;20033;-79
2022/11/13 11:29:00;;;;;;;0.10;0.10;;;;;;;7.86;100.00;102706.50;10605777;28;20025;-80
2022/11/13 11:34:19;;;;;;;0.00;0.00;;;;;;;7.86;100.00;102709.16;10607081;27;20015;-78
2022/11/13 11:39:27;;;;;;;0.00;0.00;;;;;;;7.87;100.00;102709.03;10582849;28;20024;-78
2022/11/13 11:44:33;;;;;;;0.00;0.00;;;;;;;7.80;100.00;102704.22;10564222;28;20015;-78
2022/11/13 11:49:34;;;;;;;0.00;0.00;;;;;;;7.64;100.00;102693.69;10599307;27;20427;-79
2022/11/13 11:54:47;;;;;;;0.00;0.00;;;;;;;7.55;100.00;102689.81;10627531;27;20019;-78
2022/11/13 11:59:51;;;;;;;0.20;0.20;;;;;;;7.63;100.00;102676.09;10607624;27;20291;-79
2022/11/13 12:05:01;;;;;;;0.03;0.03;;;;;;;7.78;100.00;102674.28;10629160;27;20020;-77
2022/11/13 12:10:16;;;;;;;0.10;0.10;;;;;;;7.89;100.00;102674.47;10569971;27;20440;-78
2022/11/13 12:15:47;;;;;;;0.00;0.00;;;;;;;7.87;100.00;102669.25;10589782;28;20024;-79
2022/11/13 12:20:57;;;;;;;0.10;0.10;;;;;;;7.65;100.00;102667.09;10586748;27;20027;-78
2022/11/13 12:26:26;;;;;;;0.00;0.00;;;;;;;7.60;100.00;102668.31;10589142;28;20053;-78
2022/11/13 12:31:47;;;;;;;0.00;0.00;;;;;;;7.57;100.00;102660.56;10575895;27;20198;-78
2022/11/13 12:36:49;;;;;;;0.10;0.10;;;;;;;7.41;100.00;102656.19;10596317;27;20042;-79
2022/11/13 12:41:59;;;;;;;0.08;0.08;;;;;;;7.33;100.00;102652.28;10588364;27;20034;-79
2022/11/13 12:47:00;;;;;;;0.00;0.00;;;;;;;7.33;100.00;102631.97;10600286;27;20059;-79
2022/11/13 12:52:23;;;;;;;0.00;0.00;;;;;;;7.44;100.00;102626.81;10595212;27;20027;-78
2022/11/13 12:57:24;;;;;;;0.00;0.00;;;;;;;7.47;100.00;102629.28;10568697;28;20110;-78
2022/11/13 13:02:43;;;;;;;0.00;0.00;;;;;;;7.40;100.00;102635.06;10587445;27;20065;-78
2022/11/13 13:07:50;;;;;;;0.05;0.05;;;;;;;7.39;100.00;102625.44;10574264;27;20032;-78
2022/11/13 13:12:56;;;;;;;0.00;0.00;;;;;;;7.47;100.00;102620.47;10568408;28;20015;-79
2022/11/13 13:18:04;;;;;;;0.00;0.00;;;;;;;7.58;100.00;102618.03;10622137;27;20034;-78
2022/11/13 13:23:05;;;;;;;0.00;0.00;;;;;;;7.56;100.00;102616.41;10583788;27;20027;-78
2022/11/13 13:28:26;;;;;;;0.00;0.00;;;;;;;7.58;100.00;102609.22;10630732;22;20101;-93
2022/11/13 13:34:19;;;;;;;0.00;0.00;;;;;;;7.40;100.00;102597.97;10560264;28;20072;-92
2022/11/13 13:39:57;;;;;;;0.10;0.10;;;;;;;7.47;100.00;102628.44;10529994;28;20032;-92
2022/11/13 13:45:03;;;;;;;0.10;0.10;;;;;;;7.45;100.00;102599.38;10524812;28;20036;-91
2022/11/13 13:50:07;;;;;;;0.00;0.00;;;;;;;7.38;100.00;102581.28;10500807;28;20047;-92
2022/11/13 13:55:18;;;;;;;0.10;0.10;;;;;;;7.55;100.00;102604.09;10503528;22;20052;-80
2022/11/13 14:00:20;;;;;;;0.10;0.10;;;;;;;7.50;100.00;102593.78;10544360;28;20012;-80
2022/11/13 14:05:29;;;;;;;0.10;0.10;;;;;;;7.54;100.00;102599.75;10541263;28;20028;-79
2022/11/13 14:10:29;;;;;;;0.10;0.10;;;;;;;7.56;100.00;102574.81;10539202;28;20027;-80
2022/11/13 14:15:33;;;;;;;0.00;0.00;;;;;;;7.56;100.00;102566.03;10540718;28;20023;-80
2022/11/13 14:20:51;;;;;;;0.10;0.10;;;;;;;7.58;100.00;102575.59;10524938;28;20021;-79
2022/11/13 14:25:51;;;;;;;0.00;0.00;;;;;;;7.59;100.00;102566.69;10496834;28;20032;-78
2022/11/13 14:30:55;;;;;;;0.10;0.10;;;;;;;7.57;100.00;102555.31;10497401;28;20035;-78
2022/11/13 14:35:56;;;;;;;0.05;0.05;;;;;;;7.53;100.00;102542.34;10498298;28;20463;-79
2022/11/13 14:40:58;;;;;;;0.10;0.10;;;;;;;7.55;100.00;102541.31;10516859;28;20107;-78
2022/11/13 14:46:03;;;;;;;0.00;0.00;;;;;;;7.55;100.00;102549.25;10539118;28;20076;-79
2022/11/13 14:51:17;;;;;;;0.00;0.00;;;;;;;7.53;100.00;102552.97;10500493;28;20024;-78
2022/11/13 14:56:18;;;;;;;0.00;0.00;;;;;;;7.51;100.00;102547.75;10535944;28;20496;-78
2022/11/13 15:01:20;;;;;;;0.00;0.00;;;;;;;7.48;100.00;102542.66;10539785;28;20025;-79
2022/11/13 15:06:26;;;;;;;0.10;0.10;;;;;;;7.47;100.00;102533.81;10538863;28;20024;-79
2022/11/13 15:11:26;;;;;;;0.10;0.10;;;;;;;7.45;100.00;102537.56;10520423;28;20016;-78
2022/11/13 15:16:28;;;;;;;0.00;0.00;;;;;;;7.45;100.00;102534.91;10533355;28;20470;-78
2022/11/13 15:21:29;;;;;;;0.10;0.10;;;;;;;7.44;100.00;102534.03;10511805;28;20016;-79
2022/11/13 15:26:29;;;;;;;0.00;0.00;;;;;;;7.45;100.00;102530.44;10536609;28;20483;-78
2022/11/13 15:31:32;;;;;;;0.10;0.10;;;;;;;7.45;100.00;102530.44;10546629;28;20034;-78
2022/11/13 15:36:33;;;;;;;0.00;0.00;;;;;;;7.45;100.00;102530.44;10547623;28;20020;-79
2022/11/13 15:41:34;;;;;;;0.00;0.00;;;;;;;7.46;100.00;102529.47;10545887;28;20020;-78
2022/11/13 15:46:35;;;;;;;0.00;0.00;;;;;;;7.47;100.00;102522.38;10538499;28;20016;-79
2022/11/13 15:51:41;;;;;;;0.00;0.00;;;;;;;7.45;100.00;102514.53;10528773;28;20051;-79
2022/11/13 15:56:42;;;;;;;0.00;0.00;;;;;;;7.46;100.00;102515.38;10541875;28;20020;-78
2022/11/13 16:01:43;;;;;;;0.00;0.00;;;;;;;7.46;100.00;102497.66;10543422;28;20015;-78
2022/11/13 16:06:43;;;;;;;0.00;0.00;;;;;;;7.47;100.00;102495.84;10544041;28;20027;-79
2022/11/13 16:11:44;;;;;;;0.00;0.00;;;;;;;7.48;100.00;102497.59;10545777;28;20459;-78
2022/11/13 16:16:44;;;;;;;0.00;0.00;;;;;;;7.50;100.00;102477.09;10546189;28;20380;-78
2022/11/13 16:21:44;;;;;;;0.10;0.10;;;;;;;7.53;100.00;102484.00;10515606;28;20099;-78
2022/11/13 16:26:53;;;;;;;0.00;0.00;;;;;;;7.52;100.00;102471.72;10528274;28;20043;-79
2022/11/13 16:31:53;;;;;;;0.10;0.10;;;;;;;7.53;100.00;102468.94;10496046;28;20027;-78
2022/11/13 16:36:53;;;;;;;0.03;0.03;;;;;;;7.56;100.00;102465.25;10504804;28;20013;-79
2022/11/13 16:41:54;;;;;;;0.00;0.00;;;;;;;7.56;100.00;102474.06;10503707;28;20020;-78
2022/11/13 16:46:54;;;;;;;0.05;0.05;;;;;;;7.55;100.00;102466.22;10503899;28;20120;-79
2022/11/13 16:51:55;;;;;;;0.00;0.00;;;;;;;7.55;100.00;102469.72;10506360;28;20020;-79
2022/11/13 16:56:55;;;;;;;0.00;0.00;;;;;;;7.59;100.00;102463.28;10543551;28;20038;-78
2022/11/13 17:01:55;;;;;;;0.03;0.03;;;;;;;7.60;100.00;102453.50;10536439;28;20020;-78
2022/11/13 17:06:56;;;;;;;0.10;0.10;;;;;;;7.65;100.00;102465.53;10537058;28;20493;-78
2022/11/13 17:11:56;;;;;;;0.03;0.03;;;;;;;7.67;100.00;102453.00;10525264;28;20079;-78
2022/11/13 17:16:56;;;;;;;0.00;0.00;;;;;;;7.69;100.00;102451.09;10544388;28;20106;-78
2022/11/13 17:21:57;;;;;;;0.10;0.10;;;;;;;7.73;100.00;102441.13;10492007;28;20386;-78
2022/11/13 17:26:57;;;;;;;0.03;0.03;;;;;;;7.76;100.00;102435.63;10502810;28;20035;-78
2022/11/13 17:31:57;;;;;;;0.00;0.00;;;;;;;7.80;100.00;102436.28;10500058;28;20029;-78
2022/11/13 17:36:59;;;;;;;0.00;0.00;;;;;;;7.80;100.00;102441.59;10502395;28;20316;-78
2022/11/13 17:42:00;;;;;;;0.10;0.10;;;;;;;7.81;100.00;102433.53;10500043;28;20017;-78
2022/11/13 17:47:00;;;;;;;0.00;0.00;;;;;;;7.83;100.00;102430.78;10518731;28;20053;-79
2022/11/13 17:52:00;;;;;;;0.00;0.00;;;;;;;7.87;100.00;102434.91;10524707;28;20286;-79
2022/11/13 17:57:01;;;;;;;0.00;0.00;;;;;;;7.88;100.00;102426.88;10543182;28;20020;-78
2022/11/13 18:02:01;;;;;;;0.00;0.00;;;;;;;7.91;100.00;102415.19;10540654;28;20390;-78
2022/11/13 18:07:02;;;;;;;0.00;0.00;;;;;;;7.96;100.00;102414.88;10542350;28;20055;-78
2022/11/13 18:12:02;;;;;;;0.10;0.10;;;;;;;7.97;100.00;102404.19;10541264;28;20108;-78
2022/11/13 18:17:02;;;;;;;0.00;0.00;;;;;;;7.99;100.00;102398.75;10521287;28;20027;-76
2022/11/13 18:22:02;;;;;;;0.00;0.00;;;;;;;8.01;100.00;102405.66;10531799;28;20321;-76
2022/11/13 18:27:04;;;;;;;0.00;0.00;;;;;;;8.04;100.00;102404.59;10531403;28;20024;-76
2022/11/13 18:32:05;;;;;;;0.10;0.10;;;;;;;8.05;100.00;102388.56;10532621;28;20087;-76
2022/11/13 18:37:05;;;;;;;0.00;0.00;;;;;;;8.08;100.00;102392.81;10528101;28;20020;-76
2022/11/13 18:42:05;;;;;;;0.00;0.00;;;;;;;8.09;100.00;102376.81;10527532;28;20379;-76
2022/11/13 18:47:06;;;;;;;0.10;0.10;;;;;;;8.10;100.00;102378.50;10533141;28;20355;-76
2022/11/13 18:52:06;;;;;;;0.10;0.10;;;;;;;8.11;100.00;102377.53;10506222;28;20274;-76
2022/11/13 18:57:06;;;;;;;0.10;0.10;;;;;;;8.12;100.00;102370.44;10512657;28;20035;-76
2022/11/13 19:02:10;;;;;;;0.10;0.10;;;;;;;8.13;100.00;102375.63;10531992;28;20258;-76
2022/11/13 19:07:10;;;;;;;0.10;0.10;;;;;;;8.15;100.00;102365.75;10527629;28;20081;-76
2022/11/13 19:12:11;;;;;;;0.00;0.00;;;;;;;8.14;100.00;102365.84;10529253;28;20024;-76
2022/11/13 19:17:11;;;;;;;0.10;0.10;;;;;;;8.15;100.00;102360.44;10530596;28;20020;-76
2022/11/13 19:22:11;;;;;;;0.00;0.00;;;;;;;8.19;100.00;102366.38;10496779;28;20255;-76
2022/11/13 19:27:12;;;;;;;0.10;0.10;;;;;;;8.21;100.00;102355.69;10506036;28;20138;-76
2022/11/13 19:32:12;;;;;;;0.00;0.00;;;;;;;8.23;100.00;102361.72;10517581;22;21181;-74
2022/11/13 19:37:12;;;;;;;0.10;0.10;;;;;;;8.22;100.00;102354.72;10567987;28;20765;-75
2022/11/13 19:42:13;;;;;;;0.03;0.03;;;;;;;8.22;100.00;102350.25;10552991;28;20431;-75
2022/11/13 19:47:13;;;;;;;0.10;0.10;;;;;;;8.22;100.00;102344.94;10569192;28;20073;-75
2022/11/13 19:52:13;;;;;;;0.10;0.10;;;;;;;8.21;100.00;102337.94;10535155;28;20080;-74
2022/11/13 19:57:13;;;;;;;0.10;0.10;;;;;;;8.21;100.00;102340.59;10560315;28;20027;-74
2022/11/13 20:02:14;;;;;;;0.00;0.00;;;;;;;8.20;100.00;102335.38;10552829;28;20011;-75
2022/11/13 20:07:14;;;;;;;0.00;0.00;;;;;;;8.20;100.00;102338.03;10559106;28;20462;-74
2022/11/13 20:12:14;;;;;;;0.00;0.00;;;;;;;8.20;100.00;102346.00;10568971;28;20047;-74
2022/11/13 20:17:15;;;;;;;0.00;0.00;;;;;;;8.22;100.00;102339.63;10562956;28;20024;-75
2022/11/13 20:22:16;;;;;;;0.00;0.00;;;;;;;8.25;100.00;102338.56;10560697;28;20480;-74
2022/11/13 20:27:16;;;;;;;0.10;0.10;;;;;;;8.25;100.00;102334.09;10571796;28;20073;-74
2022/11/13 20:32:16;;;;;;;0.10;0.10;;;;;;;8.28;100.00;102333.03;10565123;28;20024;-75
2022/11/13 20:37:16;;;;;;;0.00;0.00;;;;;;;8.26;100.00;102329.66;10561221;28;20111;-75
2022/11/13 20:42:17;;;;;;;0.00;0.00;;;;;;;8.26;100.00;102342.91;10567540;28;20019;-74
2022/11/13 20:47:17;;;;;;;0.10;0.10;;;;;;;8.26;100.00;102329.66;10565440;28;20023;-74
2022/11/13 20:52:18;;;;;;;0.00;0.00;;;;;;;8.24;100.00;102334.22;10568570;28;20019;-74
2022/11/13 20:57:20;;;;;;;0.00;0.00;;;;;;;8.24;100.00;102331.56;10563291;28;20028;-74
2022/11/13 21:02:20;;;;;;;0.10;0.10;;;;;;;8.24;100.00;102332.41;10556922;28;20038;-74
2022/11/13 21:07:20;;;;;;;0.00;0.00;;;;;;;8.26;100.00;102327.88;10565362;28;20024;-74
2022/11/13 21:12:21;;;;;;;0.00;0.00;;;;;;;8.26;100.00;102324.34;10570576;28;20492;-74
2022/11/13 21:17:21;;;;;;;0.10;0.10;;;;;;;8.26;100.00;102319.91;10570873;28;20046;-74
2022/11/13 21:22:21;;;;;;;0.10;0.10;;;;;;;8.31;100.00;102322.22;10565635;28;20015;-75
2022/11/13 21:27:21;;;;;;;0.03;0.03;;;;;;;8.31;100.00;102301.81;10564753;28;20030;-74
2022/11/13 21:32:22;;;;;;;0.00;0.00;;;;;;;8.32;100.00;102292.03;10568951;28;20023;-74
2022/11/13 21:37:22;;;;;;;0.00;0.00;;;;;;;8.35;100.00;102289.19;10554029;28;20054;-75
2022/11/13 21:42:22;;;;;;;0.10;0.10;;;;;;;8.34;100.00;102284.81;10556082;28;20117;-74
2022/11/13 21:47:23;;;;;;;0.00;0.00;;;;;;;8.34;100.00;102266.25;10560082;28;20022;-74
2022/11/13 21:52:23;;;;;;;0.00;0.00;;;;;;;8.34;100.00;102264.44;10554373;28;20098;-74
2022/11/13 21:57:25;;;;;;;0.10;0.10;;;;;;;8.36;100.00;102264.34;10554152;28;20032;-75
2022/11/13 22:02:26;;;;;;;0.00;0.00;;;;;;;8.39;100.00;102272.09;10560217;28;20514;-74
2022/11/13 22:07:26;;;;;;;0.00;0.00;;;;;;;8.38;100.00;102250.03;10553640;28;20019;-75
2022/11/13 22:12:26;;;;;;;0.00;0.00;;;;;;;8.36;100.00;102251.06;10558929;28;20565;-75
2022/11/13 22:17:26;;;;;;;0.00;0.00;;;;;;;8.36;100.00;102245.75;10560965;28;20085;-74
2022/11/13 22:22:27;;;;;;;0.00;0.00;;;;;;;8.34;100.00;102245.00;10563541;28;20016;-74
2022/11/13 22:27:28;;;;;;;0.10;0.10;;;;;;;8.33;100.00;102245.97;10548293;28;20103;-75
2022/11/13 22:32:29;;;;;;;0.10;0.10;;;;;;;8.31;100.00;102240.75;10560610;28;20039;-74
2022/11/13 22:37:30;;;;;;;0.10;0.10;;;;;;;8.29;100.00;102234.72;10554117;28;20028;-74
2022/11/13 22:42:30;;;;;;;0.10;0.10;;;;;;;8.23;100.00;102226.34;10560594;28;20028;-75
2022/11/13 22:47:31;;;;;;;0.00;0.00;;;;;;;8.14;100.00;102223.41;10561200;28;20019;-74
2022/11/13 22:52:31;;;;;;;0.00;0.00;;;;;;;8.11;100.00;102218.28;10554752;28;20024;-74
2022/11/13 22:57:31;;;;;;;0.10;0.10;;;;;;;8.07;100.00;102221.28;10560289;28;20477;-74
2022/11/13 23:02:32;;;;;;;0.00;0.00;;;;;;;8.04;100.00;102222.34;10559525;28;20119;-75
2022/11/13 23:07:32;;;;;;;0.00;0.00;;;;;;;8.04;100.00;102211.72;10556701;28;20539;-74
2022/11/13 23:12:32;;;;;;;0.10;0.10;;;;;;;7.99;100.00;102195.28;10565218;28;20402;-75